createdAt,value
2022-11-13T00:01:35.084Z,4.83
2022-11-13T00:04:01.739Z,4.74
2022-11-13T00:06:28.317Z,4.81
2022-11-13T00:08:55.705Z,4.81
2022-11-13T00:11:22.248Z,4.79
2022-11-13T00:13:49.246Z,4.71
2022-11-13T00:16:21.331Z,4.77
2022-11-13T00:18:48.269Z,4.69
2022-11-13T00:21:17.430Z,4.70
2022-11-13T00:23:44.036Z,4.55
2022-11-13T00:26:16.734Z,4.73
2022-11-13T00:28:43.652Z,4.69
2022-11-13T00:31:12.611Z,4.70
2022-11-13T00:34:05.196Z,4.69
2022-11-13T00:36:27.860Z,4.69
2022-11-13T00:38:55.289Z,4.65
2022-11-13T00:41:22.766Z,4.48
2022-11-13T00:43:49.539Z,4.60
2022-11-13T00:46:16.215Z,4.55
2022-11-13T00:48:42.792Z,4.46
2022-11-13T00:51:09.321Z,4.29
2022-11-13T00:53:35.874Z,4.37
2022-11-13T00:56:02.686Z,4.35
2022-11-13T00:58:29.269Z,4.30
2022-11-13T01:00:55.984Z,4.26
2022-11-13T01:03:22.502Z,4.21
2022-11-13T01:05:49.040Z,4.03
2022-11-13T01:08:16.541Z,4.09
2022-11-13T01:10:52.107Z,4.09
2022-11-13T01:13:20.400Z,4.14
2022-11-13T01:15:46.923Z,4.11
2022-11-13T01:18:13.500Z,4.07
2022-11-13T01:20:40.197Z,4.07
2022-11-13T01:23:06.728Z,4.03
2022-11-13T01:25:33.609Z,4.04
2022-11-13T01:28:00.139Z,4.07
2022-11-13T01:30:26.805Z,4.05
2022-11-13T01:32:53.334Z,3.97
2022-11-13T01:35:19.955Z,3.94
2022-11-13T01:37:46.475Z,3.88
2022-11-13T01:40:13.883Z,3.86
2022-11-13T01:42:40.505Z,3.88
2022-11-13T01:45:49.087Z,3.86
2022-11-13T01:48:15.690Z,3.88
2022-11-13T01:50:42.199Z,3.88
2022-11-13T01:53:09.077Z,3.86
2022-11-13T01:55:36.135Z,3.83
2022-11-13T01:58:04.900Z,3.81
2022-11-13T02:00:31.402Z,3.82
2022-11-13T02:02:57.972Z,3.89
2022-11-13T02:05:24.523Z,3.73
2022-11-13T02:07:51.169Z,3.91
2022-11-13T02:10:17.782Z,3.88
2022-11-13T02:12:49.811Z,3.82
2022-11-13T02:15:18.472Z,3.84
2022-11-13T02:17:57.043Z,3.79
2022-11-13T02:20:51.076Z,3.70
2022-11-13T02:23:30.516Z,3.49
2022-11-13T02:25:57.817Z,3.58
2022-11-13T02:28:24.417Z,3.44
2022-11-13T02:30:50.891Z,3.54
2022-11-13T02:33:25.308Z,3.51
2022-11-13T02:35:52.320Z,3.48
2022-11-13T02:38:18.918Z,3.47
2022-11-13T02:40:45.688Z,3.42
2022-11-13T02:43:12.180Z,3.43
2022-11-13T02:45:38.759Z,3.30
2022-11-13T02:48:06.383Z,3.24
2022-11-13T02:50:34.273Z,3.22
2022-11-13T02:53:01.412Z,3.38
2022-11-13T02:55:27.949Z,3.40
2022-11-13T02:57:54.651Z,3.37
2022-11-13T03:00:21.253Z,3.22
2022-11-13T03:02:47.767Z,3.29
2022-11-13T03:05:14.514Z,3.39
2022-11-13T03:07:42.202Z,3.42
2022-11-13T03:10:10.647Z,3.42
2022-11-13T03:12:37.676Z,3.46
2022-11-13T03:15:06.176Z,3.54
2022-11-13T03:17:32.750Z,3.55
2022-11-13T03:19:59.563Z,3.57
2022-11-13T03:22:26.713Z,3.60
2022-11-13T03:24:54.661Z,3.62
2022-11-13T03:27:21.545Z,3.45
2022-11-13T03:29:48.245Z,3.65
2022-11-13T03:32:14.819Z,3.63
2022-11-13T03:34:41.403Z,3.66
2022-11-13T03:37:08.274Z,3.59
2022-11-13T03:39:34.896Z,3.63
2022-11-13T03:42:01.470Z,3.65
2022-11-13T03:44:28.098Z,3.66
2022-11-13T03:46:54.615Z,3.59
2022-11-13T03:49:21.200Z,3.53
2022-11-13T03:51:47.931Z,3.48
2022-11-13T03:54:14.500Z,3.47
2022-11-13T03:56:41.122Z,3.43
2022-11-13T03:59:07.636Z,3.37
2022-11-13T04:01:35.014Z,3.36
2022-11-13T04:04:01.729Z,3.28
2022-11-13T04:06:28.386Z,3.30
2022-11-13T04:08:54.940Z,3.29
2022-11-13T04:11:21.660Z,3.23
2022-11-13T04:13:48.224Z,3.20
2022-11-13T04:16:14.792Z,3.19
2022-11-13T04:18:41.344Z,3.14
2022-11-13T04:21:07.934Z,3.07
2022-11-13T04:23:34.428Z,3.06
2022-11-13T04:26:00.992Z,2.90
2022-11-13T04:28:28.101Z,3.00
2022-11-13T04:30:55.413Z,2.98
2022-11-13T04:33:22.072Z,3.01
2022-11-13T04:35:48.935Z,3.06
2022-11-13T04:38:15.808Z,3.05
2022-11-13T04:40:42.896Z,3.06
2022-11-13T04:43:09.689Z,3.07
2022-11-13T04:45:36.915Z,3.02
2022-11-13T04:48:03.935Z,2.80
2022-11-13T04:50:30.680Z,2.89
2022-11-13T04:52:57.179Z,2.84
2022-11-13T04:55:23.752Z,2.78
2022-11-13T04:57:51.651Z,2.75
2022-11-13T05:00:18.872Z,2.72
2022-11-13T05:02:45.441Z,2.56
2022-11-13T05:05:12.190Z,2.67
2022-11-13T05:07:39.566Z,2.67
2022-11-13T05:10:06.399Z,2.64
2022-11-13T05:12:32.904Z,2.67
2022-11-13T05:14:59.654Z,2.73
2022-11-13T05:17:26.847Z,2.75
2022-11-13T05:19:53.420Z,2.77
2022-11-13T05:22:20.408Z,2.73
2022-11-13T05:24:47.143Z,2.78
2022-11-13T05:27:17.347Z,2.72
2022-11-13T05:29:44.245Z,2.73
2022-11-13T05:32:10.789Z,2.74
2022-11-13T05:34:37.317Z,2.71
2022-11-13T05:37:04.724Z,2.81
2022-11-13T05:39:31.426Z,2.72
2022-11-13T05:41:58.106Z,2.66
2022-11-13T05:44:24.686Z,2.64
2022-11-13T05:46:52.624Z,2.55
2022-11-13T05:49:19.705Z,2.35
2022-11-13T05:51:46.555Z,2.52
2022-11-13T05:54:13.141Z,2.52
2022-11-13T05:56:40.509Z,2.53
2022-11-13T05:59:07.339Z,2.38
2022-11-13T06:01:39.516Z,2.40
2022-11-13T06:04:07.999Z,2.47
2022-11-13T06:06:34.865Z,2.34
2022-11-13T06:09:04.822Z,2.56
2022-11-13T06:11:32.105Z,2.57
2022-11-13T06:13:59.526Z,2.54
2022-11-13T06:16:29.011Z,2.69
2022-11-13T06:18:57.475Z,2.55
2022-11-13T06:21:26.829Z,2.58
2022-11-13T06:23:53.399Z,2.79
2022-11-13T06:26:22.826Z,2.77
2022-11-13T06:28:49.824Z,2.77
2022-11-13T06:31:19.309Z,2.57
2022-11-13T06:33:46.039Z,2.53
2022-11-13T06:36:16.729Z,2.71
2022-11-13T06:38:43.586Z,2.70
2022-11-13T06:41:12.516Z,2.70
2022-11-13T06:43:39.479Z,2.76
2022-11-13T06:46:13.163Z,2.63
2022-11-13T06:48:39.767Z,2.78
2022-11-13T06:51:09.453Z,2.75
2022-11-13T06:53:35.948Z,2.73
2022-11-13T06:56:05.925Z,2.68
2022-11-13T06:58:33.304Z,2.66
2022-11-13T07:01:07.087Z,2.65
2022-11-13T07:03:34.026Z,2.64
2022-11-13T07:06:06.054Z,2.67
2022-11-13T07:08:33.378Z,2.74
2022-11-13T07:11:00.025Z,2.75
2022-11-13T07:13:27.836Z,2.88
2022-11-13T07:15:54.585Z,2.91
2022-11-13T07:18:24.160Z,2.97
2022-11-13T07:20:50.919Z,3.03
2022-11-13T07:23:17.431Z,3.09
2022-11-13T07:25:43.971Z,3.27
2022-11-13T07:28:10.695Z,3.38
2022-11-13T07:30:37.243Z,3.42
2022-11-13T07:33:04.749Z,3.48
2022-11-13T07:35:31.308Z,3.53
2022-11-13T07:37:58.821Z,3.63
2022-11-13T07:40:25.833Z,3.73
2022-11-13T07:42:59.960Z,3.80
2022-11-13T07:45:28.124Z,4.08
2022-11-13T07:48:02.107Z,4.11
2022-11-13T07:50:30.272Z,4.24
2022-11-13T07:53:03.111Z,4.25
2022-11-13T07:55:30.099Z,4.28
2022-11-13T07:58:00.648Z,4.28
2022-11-13T08:00:28.677Z,4.34
2022-11-13T08:02:55.685Z,4.28
2022-11-13T08:05:22.847Z,4.31
2022-11-13T08:07:51.548Z,4.27
2022-11-13T08:10:19.763Z,4.43
2022-11-13T08:12:47.089Z,4.54
2022-11-13T08:15:14.029Z,4.55
2022-11-13T08:17:41.271Z,4.59
2022-11-13T08:20:09.021Z,4.67
2022-11-13T08:22:35.580Z,4.76
2022-11-13T08:25:02.100Z,4.80
2022-11-13T08:27:28.649Z,4.79
2022-11-13T08:29:55.188Z,4.89
2022-11-13T08:32:22.586Z,5.01
2022-11-13T08:34:49.359Z,5.12
2022-11-13T08:37:16.039Z,5.22
2022-11-13T08:39:42.639Z,5.34
2022-11-13T08:42:09.644Z,5.32
2022-11-13T08:44:36.214Z,5.40
2022-11-13T08:47:02.922Z,5.58
2022-11-13T08:49:29.510Z,5.60
2022-11-13T08:51:56.225Z,5.40
2022-11-13T08:54:22.763Z,5.72
2022-11-13T08:56:54.624Z,5.61
2022-11-13T08:59:27.214Z,5.79
2022-11-13T09:01:59.269Z,5.88
2022-11-13T09:04:26.522Z,5.98
2022-11-13T09:06:53.494Z,6.04
2022-11-13T09:09:20.932Z,6.24
2022-11-13T09:11:47.419Z,6.41
2022-11-13T09:14:14.343Z,6.56
2022-11-13T09:16:40.890Z,6.71
2022-11-13T09:19:08.204Z,6.85
2022-11-13T09:21:34.756Z,6.88
2022-11-13T09:24:01.652Z,7.06
2022-11-13T09:26:28.151Z,7.22
2022-11-13T09:28:54.675Z,7.30
2022-11-13T09:31:21.200Z,7.31
2022-11-13T09:33:47.727Z,7.57
2022-11-13T09:36:16.193Z,7.73
2022-11-13T09:38:42.769Z,7.85
2022-11-13T09:41:20.872Z,8.01
2022-11-13T09:43:59.268Z,8.12
2022-11-13T09:46:32.192Z,8.25
2022-11-13T09:49:22.769Z,8.28
2022-11-13T09:52:06.837Z,8.42
2022-11-13T09:54:33.644Z,8.53
2022-11-13T09:57:35.793Z,8.64
2022-11-13T10:00:05.148Z,8.69
2022-11-13T10:02:58.357Z,8.76
2022-11-13T10:05:27.615Z,8.83
2022-11-13T10:07:56.924Z,8.86
2022-11-13T10:10:53.659Z,8.88
2022-11-13T10:13:28.608Z,8.83
2022-11-13T10:16:20.436Z,8.96
2022-11-13T10:18:50.719Z,8.95
2022-11-13T10:21:39.709Z,9.23
2022-11-13T10:24:18.126Z,9.38
2022-11-13T10:26:44.702Z,9.52
2022-11-13T10:29:20.274Z,9.60
2022-11-13T10:31:49.714Z,9.65
2022-11-13T10:34:18.096Z,9.66
2022-11-13T10:37:23.497Z,9.64
2022-11-13T10:39:50.036Z,9.85
2022-11-13T10:42:22.917Z,9.95
2022-11-13T10:44:55.728Z,9.89
2022-11-13T10:47:42.832Z,10.07
2022-11-13T10:50:26.393Z,10.19
2022-11-13T10:52:54.908Z,10.26
2022-11-13T10:55:41.725Z,10.31
2022-11-13T10:58:17.504Z,10.35
2022-11-13T11:00:47.476Z,10.39
2022-11-13T11:03:20.077Z,10.45
2022-11-13T11:05:54.552Z,10.54
2022-11-13T11:08:31.754Z,10.50
2022-11-13T11:11:31.786Z,10.45
2022-11-13T11:14:16.769Z,10.43
2022-11-13T11:16:45.365Z,10.39
2022-11-13T11:19:15.498Z,10.39
2022-11-13T11:21:44.065Z,10.44
2022-11-13T11:24:16.629Z,10.44
2022-11-13T11:26:45.444Z,10.49
2022-11-13T11:29:19.032Z,10.50
2022-11-13T11:31:56.453Z,10.39
2022-11-13T11:34:30.671Z,10.50
2022-11-13T11:37:18.773Z,10.47
2022-11-13T11:39:51.352Z,10.51
2022-11-13T11:42:17.817Z,10.50
2022-11-13T11:45:15.684Z,10.60
2022-11-13T11:47:42.848Z,10.66
2022-11-13T11:50:16.868Z,10.44
2022-11-13T11:52:52.531Z,10.75
2022-11-13T11:55:30.205Z,10.81
2022-11-13T11:58:06.797Z,10.75
2022-11-13T12:00:37.952Z,10.90
2022-11-13T12:03:26.267Z,11.01
2022-11-13T12:05:55.678Z,11.06
2022-11-13T12:08:44.223Z,10.99
2022-11-13T12:11:16.807Z,11.19
2022-11-13T12:14:06.607Z,11.13
2022-11-13T12:16:45.204Z,11.33
2022-11-13T12:19:32.343Z,11.36
2022-11-13T12:22:10.907Z,11.33
2022-11-13T12:25:22.449Z,11.47
2022-11-13T12:28:13.876Z,11.55
2022-11-13T12:30:55.415Z,11.46
2022-11-13T12:33:32.456Z,11.61
2022-11-13T12:36:00.208Z,11.63
2022-11-13T12:38:41.650Z,11.59
2022-11-13T12:41:27.011Z,11.70
2022-11-13T12:44:24.982Z,11.73
2022-11-13T12:46:54.044Z,11.62
2022-11-13T12:49:23.605Z,11.72
2022-11-13T12:51:59.736Z,11.74
2022-11-13T12:54:38.138Z,11.71
2022-11-13T12:57:13.518Z,11.55
2022-11-13T12:59:52.930Z,11.67
2022-11-13T13:02:32.852Z,11.66
2022-11-13T13:05:04.690Z,11.56
2022-11-13T13:07:43.213Z,11.68
2022-11-13T13:10:31.431Z,11.70
2022-11-13T13:13:24.695Z,11.70
2022-11-13T13:15:58.324Z,11.64
2022-11-13T13:18:29.821Z,11.69
2022-11-13T13:21:11.450Z,11.54
2022-11-13T13:23:39.189Z,11.62
2022-11-13T13:26:25.222Z,11.66
2022-11-13T13:28:55.651Z,11.73
2022-11-13T13:31:46.296Z,11.75
2022-11-13T13:34:35.016Z,11.80
2022-11-13T13:37:01.906Z,11.85
2022-11-13T13:39:41.250Z,11.81
2022-11-13T13:42:22.587Z,12.01
2022-11-13T13:44:55.152Z,12.07
2022-11-13T13:47:30.979Z,12.08
2022-11-13T13:49:57.973Z,12.02
2022-11-13T13:52:30.463Z,12.05
2022-11-13T13:54:59.016Z,12.03
2022-11-13T13:57:26.429Z,12.08
2022-11-13T13:59:53.228Z,12.14
2022-11-13T14:02:23.168Z,12.17
2022-11-13T14:04:54.702Z,12.19
2022-11-13T14:07:31.519Z,12.14
2022-11-13T14:10:20.615Z,12.04
2022-11-13T14:12:47.237Z,11.92
2022-11-13T14:15:26.089Z,11.94
2022-11-13T14:17:53.137Z,11.89
2022-11-13T14:20:20.935Z,11.81
2022-11-13T14:22:55.286Z,11.79
2022-11-13T14:25:26.696Z,11.71
2022-11-13T14:27:53.291Z,11.73
2022-11-13T14:30:30.480Z,11.63
2022-11-13T14:33:08.963Z,11.69
2022-11-13T14:35:38.076Z,11.69
2022-11-13T14:38:04.777Z,11.54
2022-11-13T14:40:33.947Z,11.59
2022-11-13T14:43:05.730Z,11.39
2022-11-13T14:45:33.834Z,11.50
2022-11-13T14:48:37.563Z,11.53
2022-11-13T14:51:06.417Z,11.53
2022-11-13T14:53:38.147Z,11.40
2022-11-13T14:56:10.624Z,11.53
2022-11-13T14:58:47.384Z,11.52
2022-11-13T15:01:22.432Z,11.55
2022-11-13T15:03:50.954Z,11.54
2022-11-13T15:06:23.821Z,11.49
2022-11-13T15:08:56.657Z,11.44
2022-11-13T15:11:24.991Z,11.37
2022-11-13T15:13:51.493Z,11.29
2022-11-13T15:16:28.522Z,11.21
2022-11-13T15:19:03.002Z,11.17
2022-11-13T15:21:30.462Z,11.16
2022-11-13T15:23:57.692Z,11.13
2022-11-13T15:26:24.383Z,11.08
2022-11-13T15:28:51.027Z,11.05
2022-11-13T15:31:30.427Z,11.04
2022-11-13T15:33:57.010Z,11.00
2022-11-13T15:36:23.794Z,10.95
2022-11-13T15:38:50.324Z,10.82
2022-11-13T15:41:20.346Z,10.76
2022-11-13T15:43:49.583Z,10.77
2022-11-13T15:46:18.858Z,10.64
2022-11-13T15:48:46.506Z,10.67
2022-11-13T15:51:27.907Z,10.56
2022-11-13T15:53:59.780Z,10.45
2022-11-13T15:56:27.516Z,10.34
2022-11-13T15:58:54.270Z,10.23
2022-11-13T16:01:21.648Z,10.15
2022-11-13T16:03:48.311Z,10.06
2022-11-13T16:06:22.473Z,10.15
2022-11-13T16:08:49.891Z,10.18
2022-11-13T16:11:18.754Z,10.14
2022-11-13T16:13:46.405Z,10.11
2022-11-13T16:16:27.057Z,10.02
2022-11-13T16:18:59.793Z,9.93
2022-11-13T16:21:36.500Z,9.81
2022-11-13T16:24:03.672Z,9.69
2022-11-13T16:26:31.562Z,9.59
2022-11-13T16:29:18.730Z,9.47
2022-11-13T16:31:51.104Z,9.32
2022-11-13T16:34:29.058Z,9.05
2022-11-13T16:36:57.405Z,9.03
2022-11-13T16:39:24.130Z,8.97
2022-11-13T16:41:50.649Z,8.77
2022-11-13T16:44:17.386Z,8.85
2022-11-13T16:46:49.534Z,8.83
2022-11-13T16:49:19.098Z,8.77
2022-11-13T16:51:46.873Z,8.69
2022-11-13T16:54:13.914Z,8.67
2022-11-13T16:56:40.462Z,8.68
2022-11-13T16:59:09.981Z,8.65
2022-11-13T17:01:37.067Z,8.61
2022-11-13T17:04:06.547Z,8.45
2022-11-13T17:06:36.930Z,8.49
2022-11-13T17:09:07.545Z,8.51
2022-11-13T17:11:35.685Z,8.49
2022-11-13T17:14:05.785Z,8.49
2022-11-13T17:16:34.576Z,8.42
2022-11-13T17:19:01.901Z,8.34
2022-11-13T17:21:30.430Z,8.36
2022-11-13T17:24:04.271Z,8.38
2022-11-13T17:26:31.913Z,8.42
2022-11-13T17:29:06.272Z,8.46
2022-11-13T17:31:33.927Z,8.47
2022-11-13T17:34:03.785Z,8.52
2022-11-13T17:36:33.020Z,8.50
2022-11-13T17:39:02.265Z,8.51
2022-11-13T17:41:30.474Z,8.51
2022-11-13T17:44:02.928Z,8.50
2022-11-13T17:46:30.400Z,8.44
2022-11-13T17:49:00.193Z,8.40
2022-11-13T17:51:28.724Z,8.35
2022-11-13T17:53:59.511Z,8.28
2022-11-13T17:56:26.313Z,8.17
2022-11-13T17:58:52.850Z,8.13
2022-11-13T18:01:21.858Z,8.08
2022-11-13T18:03:54.706Z,7.96
2022-11-13T18:06:21.621Z,8.06
2022-11-13T18:08:48.333Z,8.04
2022-11-13T18:11:22.140Z,8.05
2022-11-13T18:13:50.231Z,7.94
2022-11-13T18:16:20.766Z,7.93
2022-11-13T18:18:53.582Z,7.89
2022-11-13T18:21:29.307Z,7.71
2022-11-13T18:23:58.155Z,7.76
2022-11-13T18:26:24.966Z,7.73
2022-11-13T18:28:51.676Z,7.67
2022-11-13T18:31:19.928Z,7.63
2022-11-13T18:33:47.282Z,7.60
2022-11-13T18:36:14.420Z,7.58
2022-11-13T18:38:41.310Z,7.58
2022-11-13T18:41:13.284Z,7.39
2022-11-13T18:43:43.299Z,7.42
2022-11-13T18:46:11.064Z,7.43
2022-11-13T18:48:40.002Z,7.39
2022-11-13T18:51:21.431Z,7.37
2022-11-13T18:53:49.457Z,7.33
2022-11-13T18:56:19.483Z,7.30
2022-11-13T18:58:48.204Z,7.27
2022-11-13T19:01:21.934Z,7.25
2022-11-13T19:04:15.999Z,7.16
2022-11-13T19:06:44.767Z,7.11
2022-11-13T19:09:16.952Z,7.07
2022-11-13T19:11:45.421Z,7.03
2022-11-13T19:17:00.530Z,7.01
2022-11-13T19:19:27.651Z,7.03
2022-11-13T19:21:59.508Z,7.02
2022-11-13T19:24:27.075Z,7.01
2022-11-13T19:26:54.979Z,6.97
2022-11-13T19:29:26.942Z,6.93
2022-11-13T19:31:57.253Z,6.89
2022-11-13T19:34:29.917Z,6.84
2022-11-13T19:37:07.351Z,6.78
2022-11-13T19:39:41.013Z,6.74
2022-11-13T19:42:09.278Z,6.69
2022-11-13T19:44:39.978Z,6.70
2022-11-13T19:47:09.613Z,6.74
2022-11-13T19:49:39.845Z,6.73
2022-11-13T19:52:07.711Z,6.73
2022-11-13T19:54:38.091Z,6.63
2022-11-13T19:57:13.423Z,6.71
2022-11-13T19:59:42.560Z,6.69
2022-11-13T20:02:16.067Z,6.65
2022-11-13T20:04:46.499Z,6.61
2022-11-13T20:07:15.573Z,6.45
2022-11-13T20:09:52.871Z,6.57
2022-11-13T20:12:23.924Z,6.55
2022-11-13T20:14:50.800Z,6.49
2022-11-13T20:17:18.417Z,6.47
2022-11-13T20:19:45.001Z,6.48
2022-11-13T20:22:11.637Z,6.45
2022-11-13T20:24:38.201Z,6.42
2022-11-13T20:27:04.796Z,6.43
2022-11-13T20:29:34.428Z,6.38
2022-11-13T20:32:01.041Z,6.41
2022-11-13T20:34:27.731Z,6.38
2022-11-13T20:36:54.372Z,6.38
2022-11-13T20:39:21.000Z,6.34
2022-11-13T20:41:47.716Z,6.29
2022-11-13T20:44:15.798Z,6.30
2022-11-13T20:46:42.422Z,6.44
2022-11-13T20:49:09.104Z,6.53
2022-11-13T20:51:35.798Z,6.55
2022-11-13T20:54:02.482Z,6.56
2022-11-13T20:56:31.227Z,6.51
2022-11-13T20:59:00.428Z,6.63
2022-11-13T21:01:27.870Z,6.63
2022-11-13T21:03:56.509Z,6.66
2022-11-13T21:06:25.066Z,6.55
2022-11-13T21:08:56.413Z,6.48
2022-11-13T21:11:39.155Z,6.58
2022-11-13T21:14:07.101Z,6.53
2022-11-13T21:16:37.108Z,6.48
2022-11-13T21:19:05.174Z,6.42
2022-11-13T21:21:35.217Z,6.37
2022-11-13T21:24:03.005Z,6.29
2022-11-13T21:26:29.596Z,6.26
2022-11-13T21:29:01.340Z,6.18
2022-11-13T21:31:29.647Z,6.15
2022-11-13T21:34:07.389Z,6.17
2022-11-13T21:36:45.169Z,6.16
2022-11-13T21:39:13.149Z,6.06
2022-11-13T21:41:39.679Z,5.95
2022-11-13T21:44:08.572Z,5.96
2022-11-13T21:46:37.775Z,5.98
2022-11-13T21:49:10.002Z,5.91
2022-11-13T21:51:37.833Z,5.88
2022-11-13T21:54:05.048Z,5.86
2022-11-13T21:56:33.493Z,5.86
2022-11-13T21:59:00.307Z,5.85
2022-11-13T22:01:27.616Z,5.83
2022-11-13T22:03:54.904Z,5.79
2022-11-13T22:06:32.532Z,5.77
2022-11-13T22:09:02.978Z,5.75
2022-11-13T22:11:31.787Z,5.70
2022-11-13T22:13:59.097Z,5.70
2022-11-13T22:16:34.125Z,5.74
2022-11-13T22:19:05.672Z,5.76
2022-11-13T22:21:41.251Z,5.73
2022-11-13T22:24:08.713Z,5.59
2022-11-13T22:26:40.785Z,5.71
2022-11-13T22:29:08.240Z,5.58
2022-11-13T22:31:35.842Z,5.79
2022-11-13T22:34:02.832Z,5.78
2022-11-13T22:36:32.088Z,5.74
2022-11-13T22:38:59.612Z,5.56
2022-11-13T22:41:29.374Z,5.67
2022-11-13T22:43:59.712Z,5.46
2022-11-13T22:46:28.646Z,5.62
2022-11-13T22:48:56.567Z,5.59
2022-11-13T22:51:28.135Z,5.58
2022-11-13T22:53:57.564Z,5.58
2022-11-13T22:56:26.206Z,5.56
2022-11-13T22:58:57.629Z,5.47
2022-11-13T23:01:27.556Z,5.41
2022-11-13T23:03:55.116Z,5.34
2022-11-13T23:06:27.004Z,5.30
2022-11-13T23:08:54.279Z,5.21
2022-11-13T23:11:28.284Z,5.14
2022-11-13T23:13:57.267Z,5.11
2022-11-13T23:16:25.471Z,5.01
2022-11-13T23:18:53.806Z,4.97
2022-11-13T23:21:21.005Z,4.89
2022-11-13T23:23:47.592Z,4.88
2022-11-13T23:26:15.671Z,4.87
2022-11-13T23:28:42.285Z,4.84
2022-11-13T23:31:09.960Z,4.68
2022-11-13T23:33:38.056Z,4.78
2022-11-13T23:36:06.396Z,4.75
2022-11-13T23:38:33.099Z,4.71
2022-11-13T23:41:00.942Z,4.66
2022-11-13T23:43:47.685Z,4.62
2022-11-13T23:46:15.542Z,4.56
2022-11-13T23:48:42.532Z,4.27
2022-11-13T23:51:09.332Z,4.52
2022-11-13T23:53:35.885Z,4.50
2022-11-13T23:56:02.393Z,4.35
2022-11-13T23:58:30.466Z,4.45
